LFI weather

Langley Air Force Base
Hampton, Virginia, United States

Public forecast

Using degrees Fahrenheit for public forecast. Weather courtesy of forecast.io.

Current aviation weather report (METAR) for Langley Air Force Base

Retrieved 2020/02/17 23:56 UTC (6 minutes ago):

KLFI 172356Z AUTO 08006KT 10SM CLR 05/04 A3027 RMK AO2 SLP257 T00500044 10116 20049 53015

Aviation forecast (TAF) for Langley Air Force Base

Forecast is more than 12 hours old.

Retrieved 2020/02/15 18:07 UTC (2 days ago):

TAF KLFI 151800Z 1518/1624 VRB06KT 9999 SCT250 QNH3028INS BECMG 1607/1608 22009KT 9999 FEW230 QNH3014INS TX03/1521Z TN01/1518Z LAST NO AMDS AFT 1519 NEXT 1810